Time;durP1;ratioP1;P1;durP2;ratioP2;P2;SDS_P1;SDS_P2;PMS_P1;PMS_P2;Temp;Humidity;BMP_temperature;BMP_pressure;BME280_temperature;BME280_humidity;BME280_pressure;Samples;Min_cycle;Max_cycle;Signal;HPM_P1;HPM_P2
2023/05/13 00:02:16;;;;;;;10.48;1.92;;;;;;;;;;5001667;28;20156;-72
2023/05/13 00:04:42;;;;;;;;;;;;;;;;;;4996141;28;20030;-71
2023/05/13 00:07:08;;;;;;;11.45;2.15;;;;;;;;;;4999418;28;19920;-71
2023/05/13 00:09:34;;;;;;;13.20;2.33;;;;;;;;;;5000172;28;20519;-71
2023/05/13 00:12:02;;;;;;;11.55;2.28;;;;;;;;;;4995977;28;20025;-72
2023/05/13 00:14:28;;;;;;;11.35;3.22;;;;;;;;;;4999647;28;20368;-71
2023/05/13 00:16:55;;;;;;;8.70;2.28;;;;;;;;;;4996470;28;20481;-71
2023/05/13 00:19:21;;;;;;;12.07;2.70;;;;;;;;;;4998669;28;20453;-70
2023/05/13 00:21:47;;;;;;;9.38;2.67;;;;;;;;;;5010294;28;20080;-71
2023/05/13 00:24:13;;;;;;;9.93;2.40;;;;;;;;;;4999932;28;20082;-71
2023/05/13 00:26:39;;;;;;;;;;;;;;;;;;5012892;28;20032;-71
2023/05/13 00:29:06;;;;;;;9.40;2.13;;;;;;;;;;4998527;28;20177;-71
2023/05/13 00:31:32;;;;;;;11.00;2.22;;;;;;;;;;4998989;28;20037;-70
2023/05/13 00:33:58;;;;;;;;;;;;;;;;;;5009743;28;20057;-70
2023/05/13 00:36:26;;;;;;;7.95;1.95;;;;;;;;;;4996955;28;19963;-72
2023/05/13 00:38:52;;;;;;;10.10;2.42;;;;;;;;;;4996313;28;20036;-73
2023/05/13 00:41:18;;;;;;;8.00;1.63;;;;;;;;;;4996520;28;20487;-71
2023/05/13 00:43:44;;;;;;;;;;;;;;;;;;4997749;28;20337;-71
2023/05/13 00:46:10;;;;;;;6.07;1.40;;;;;;;;;;4997695;28;20304;-70
2023/05/13 00:48:36;;;;;;;;;;;;;;;;;;5001519;28;20607;-71
2023/05/13 00:51:02;;;;;;;6.55;1.40;;;;;;;;;;4994662;28;20515;-72
2023/05/13 00:53:30;;;;;;;7.25;1.25;;;;;;;;;;4998089;28;20120;-71
2023/05/13 00:55:56;;;;;;;5.97;1.40;;;;;;;;;;4991784;28;20453;-70
2023/05/13 00:58:22;;;;;;;;;;;;;;;;;;4996932;28;20026;-70
2023/05/13 01:01:02;;;;;;;7.03;1.65;;;;;;;;;;4993370;28;19944;-69
2023/05/13 01:03:33;;;;;;;7.00;1.60;;;;;;;;;;4998667;28;20064;-70
2023/05/13 01:06:05;;;;;;;7.28;1.40;;;;;;;;;;4993703;28;22114;-71
2023/05/13 01:08:37;;;;;;;7.22;1.50;;;;;;;;;;5000671;28;20138;-71
2023/05/13 01:11:06;;;;;;;7.70;1.42;;;;;;;;;;4995599;28;20064;-71
2023/05/13 01:13:35;;;;;;;7.22;1.45;;;;;;;;;;4994266;28;20053;-71
2023/05/13 01:16:12;;;;;;;7.78;1.40;;;;;;;;;;4997613;28;20102;-71
2023/05/13 01:18:46;;;;;;;6.75;1.52;;;;;;;;;;4999547;28;20060;-70
2023/05/13 01:21:12;;;;;;;6.20;1.42;;;;;;;;;;5000095;28;20108;-72
2023/05/13 01:23:38;;;;;;;6.20;1.15;;;;;;;;;;4998137;28;20120;-73
2023/05/13 01:26:04;;;;;;;6.80;1.30;;;;;;;;;;4996778;28;20026;-73
2023/05/13 01:28:31;;;;;;;6.63;1.35;;;;;;;;;;4997909;28;20033;-71
2023/05/13 01:30:57;;;;;;;6.53;1.40;;;;;;;;;;4993267;28;20181;-72
2023/05/13 01:33:25;;;;;;;9.80;1.77;;;;;;;;;;4996710;28;20029;-70
2023/05/13 01:35:51;;;;;;;8.68;1.70;;;;;;;;;;4993146;28;20116;-70
2023/05/13 01:38:18;;;;;;;5.38;1.27;;;;;;;;;;4996528;28;20068;-71
2023/05/13 01:40:45;;;;;;;7.90;1.70;;;;;;;;;;4994192;28;20028;-71
2023/05/13 01:43:11;;;;;;;6.70;1.45;;;;;;;;;;4997338;28;20295;-71
2023/05/13 01:45:37;;;;;;;8.40;2.28;;;;;;;;;;4997380;28;20037;-71
2023/05/13 01:48:04;;;;;;;7.28;2.00;;;;;;;;;;4992325;28;20560;-71
2023/05/13 01:50:30;;;;;;;10.27;1.77;;;;;;;;;;4997142;28;20033;-70
2023/05/13 01:52:56;;;;;;;;;;;;;;;;;;4996385;28;20672;-72
2023/05/13 01:55:22;;;;;;;7.50;1.60;;;;;;;;;;4997162;28;20315;-72
2023/05/13 01:57:48;;;;;;;5.63;1.20;;;;;;;;;;4994734;28;20080;-71
2023/05/13 02:00:14;;;;;;;;;;;;;;;;;;4995493;28;20762;-71
2023/05/13 02:02:41;;;;;;;8.10;1.85;;;;;;;;;;4993223;28;19917;-71
2023/05/13 02:05:07;;;;;;;9.15;1.80;;;;;;;;;;4995376;28;20126;-71
2023/05/13 02:07:33;;;;;;;7.10;1.25;;;;;;;;;;4998510;28;20083;-71
2023/05/13 02:09:59;;;;;;;8.52;1.65;;;;;;;;;;4995994;28;20444;-70
2023/05/13 02:12:26;;;;;;;8.60;1.40;;;;;;;;;;5000853;28;20290;-70
2023/05/13 02:14:55;;;;;;;6.68;1.60;;;;;;;;;;4996509;28;20438;-71
2023/05/13 02:17:21;;;;;;;9.20;1.52;;;;;;;;;;4996968;28;20029;-70
2023/05/13 02:19:47;;;;;;;;;;;;;;;;;;4991912;28;20037;-70
2023/05/13 02:22:13;;;;;;;7.90;1.92;;;;;;;;;;4994910;28;19931;-72
2023/05/13 02:24:39;;;;;;;;;;;;;;;;;;4994834;28;20029;-72
2023/05/13 02:27:06;;;;;;;7.82;1.75;;;;;;;;;;4997362;28;19913;-72
2023/05/13 02:29:32;;;;;;;9.57;1.83;;;;;;;;;;4995818;28;20060;-72
2023/05/13 02:31:59;;;;;;;8.98;1.80;;;;;;;;;;4989497;28;22351;-72
2023/05/13 02:34:25;;;;;;;8.05;1.48;;;;;;;;;;4994513;28;20044;-72
2023/05/13 02:36:51;;;;;;;;;;;;;;;;;;4995267;28;20744;-71
2023/05/13 02:39:17;;;;;;;7.57;1.40;;;;;;;;;;4996024;28;19917;-71
2023/05/13 02:41:44;;;;;;;8.07;1.52;;;;;;;;;;4993233;28;20033;-71
2023/05/13 02:44:10;;;;;;;7.38;1.38;;;;;;;;;;4994786;28;20886;-70
2023/05/13 02:46:36;;;;;;;7.47;1.40;;;;;;;;;;4996794;28;20136;-70
2023/05/13 02:49:03;;;;;;;7.80;1.33;;;;;;;;;;4991156;28;20056;-72
2023/05/13 02:51:29;;;;;;;;;;;;;;;;;;4994982;28;20033;-72
2023/05/13 02:53:55;;;;;;;7.90;1.60;;;;;;;;;;4994808;28;19913;-72
2023/05/13 02:56:21;;;;;;;;;;;;;;;;;;4995950;28;20751;-71
2023/05/13 02:58:47;;;;;;;11.10;1.50;;;;;;;;;;4994745;28;20058;-71
2023/05/13 03:01:13;;;;;;;8.50;1.58;;;;;;;;;;4999770;28;20053;-71
2023/05/13 03:03:40;;;;;;;7.57;1.58;;;;;;;;;;4995991;28;20037;-71
2023/05/13 03:06:06;;;;;;;7.43;1.30;;;;;;;;;;4996289;28;20095;-71
2023/05/13 03:08:32;;;;;;;8.30;1.58;;;;;;;;;;4993734;28;20547;-71
2023/05/13 03:10:58;;;;;;;;;;;;;;;;;;4994729;28;20040;-70
2023/05/13 03:13:24;;;;;;;6.30;1.20;;;;;;;;;;4999170;28;20901;-70
2023/05/13 03:15:50;;;;;;;;;;;;;;;;;;5008961;28;20124;-71
2023/05/13 03:18:16;;;;;;;7.88;1.45;;;;;;;;;;4997898;28;20127;-71
2023/05/13 03:20:42;;;;;;;;;;;;;;;;;;5010840;28;20065;-71
2023/05/13 03:23:08;;;;;;;6.70;1.20;;;;;;;;;;4998366;28;20055;-71
2023/05/13 03:25:35;;;;;;;;;;;;;;;;;;4998559;28;20382;-71
2023/05/13 03:28:02;;;;;;;7.20;1.08;;;;;;;;;;4994109;28;19925;-71
2023/05/13 03:30:28;;;;;;;6.68;1.13;;;;;;;;;;4998888;28;20045;-71
2023/05/13 03:32:55;;;;;;;;;;;;;;;;;;4998152;28;20576;-71
2023/05/13 03:35:21;;;;;;;7.75;1.50;;;;;;;;;;5000130;28;19952;-70
2023/05/13 03:37:47;;;;;;;8.43;1.42;;;;;;;;;;4995680;28;20163;-71
2023/05/13 03:40:13;;;;;;;;;;;;;;;;;;4999445;28;20025;-71
2023/05/13 03:42:40;;;;;;;3.97;0.88;;;;;;;;;;4998669;28;20461;-74
2023/05/13 03:45:06;;;;;;;11.50;1.30;;;;;;;;;;4998974;28;20037;-71
2023/05/13 03:47:32;;;;;;;8.60;1.33;;;;;;;;;;4999684;28;20056;-72
2023/05/13 03:49:58;;;;;;;;;;;;;;;;;;4997287;28;20132;-72
2023/05/13 03:52:24;;;;;;;5.68;1.20;;;;;;;;;;4999032;28;20226;-72
2023/05/13 03:54:50;;;;;;;;;;;;;;;;;;4997390;28;20658;-72
2023/05/13 03:57:17;;;;;;;9.70;1.50;;;;;;;;;;4997976;28;20460;-72
2023/05/13 03:59:43;;;;;;;;;;;;;;;;;;4997688;28;20365;-72
2023/05/13 04:02:09;;;;;;;3.72;0.90;;;;;;;;;;4998180;28;20415;-72
2023/05/13 04:04:35;;;;;;;;;;;;;;;;;;4998923;28;20056;-72
2023/05/13 04:07:01;;;;;;;5.10;1.08;;;;;;;;;;4995824;28;19913;-72
2023/05/13 04:09:27;;;;;;;;;;;;;;;;;;4999112;28;20037;-73
2023/05/13 04:11:53;;;;;;;6.28;2.33;;;;;;;;;;4996026;28;19979;-72
2023/05/13 04:14:19;;;;;;;;;;;;;;;;;;4999496;28;20036;-72
2023/05/13 04:16:45;;;;;;;5.65;1.10;;;;;;;;;;4996431;28;19988;-72
2023/05/13 04:19:12;;;;;;;6.93;1.15;;;;;;;;;;4998538;28;20368;-73
2023/05/13 04:21:39;;;;;;;5.88;1.00;;;;;;;;;;4998120;28;20478;-71
2023/05/13 04:24:05;;;;;;;5.53;1.08;;;;;;;;;;5000151;28;20405;-71
2023/05/13 04:26:31;;;;;;;5.20;1.08;;;;;;;;;;4995594;28;20034;-71
2023/05/13 04:28:57;;;;;;;;;;;;;;;;;;4998001;28;20445;-71
2023/05/13 04:31:23;;;;;;;4.40;0.95;;;;;;;;;;4997405;28;19920;-71
2023/05/13 04:33:49;;;;;;;;;;;;;;;;;;4998680;28;20053;-72
2023/05/13 04:36:15;;;;;;;5.00;1.05;;;;;;;;;;5001765;28;20376;-72
2023/05/13 04:38:41;;;;;;;;;;;;;;;;;;4997678;28;20403;-72
2023/05/13 04:41:08;;;;;;;6.45;1.30;;;;;;;;;;5001724;28;20280;-71
2023/05/13 04:43:34;;;;;;;6.57;1.05;;;;;;;;;;5000526;28;20037;-71
2023/05/13 04:46:00;;;;;;;5.55;1.33;;;;;;;;;;4997123;28;20292;-72
2023/05/13 04:48:26;;;;;;;;;;;;;;;;;;4997813;28;20056;-71
2023/05/13 04:50:53;;;;;;;5.18;1.50;;;;;;;;;;4996159;28;19979;-71
2023/05/13 04:53:19;;;;;;;;;;;;;;;;;;4999859;28;20036;-72
2023/05/13 04:55:49;;;;;;;5.07;1.10;;;;;;;;;;4994154;28;20014;-73
2023/05/13 04:58:15;;;;;;;5.28;1.30;;;;;;;;;;4998362;28;20048;-73
2023/05/13 05:00:41;;;;;;;3.97;1.00;;;;;;;;;;4994672;28;20642;-73
2023/05/13 05:03:07;;;;;;;5.63;1.10;;;;;;;;;;4999536;28;21303;-73
2023/05/13 05:05:33;;;;;;;;;;;;;;;;;;4996571;28;20044;-73
2023/05/13 05:08:00;;;;;;;7.00;1.60;;;;;;;;;;4994970;28;20580;-74
2023/05/13 05:10:26;;;;;;;;;;;;;;;;;;4995115;28;20091;-73
2023/05/13 05:12:52;;;;;;;6.30;1.40;;;;;;;;;;4997622;28;19924;-73
2023/05/13 05:15:18;;;;;;;;;;;;;;;;;;4998168;28;20533;-73
2023/05/13 05:17:44;;;;;;;7.22;1.30;;;;;;;;;;4998276;28;20256;-72
2023/05/13 05:20:12;;;;;;;7.30;1.30;;;;;;;;;;4998941;28;20115;-73
2023/05/13 05:22:40;;;;;;;5.35;0.98;;;;;;;;;;4997573;28;20428;-71
2023/05/13 05:25:06;;;;;;;6.72;0.85;;;;;;;;;;4992523;28;20072;-71
2023/05/13 05:27:33;;;;;;;3.78;0.80;;;;;;;;;;4998296;28;20467;-73
2023/05/13 05:29:59;;;;;;;;;;;;;;;;;;4994461;28;20175;-71
2023/05/13 05:32:25;;;;;;;6.45;1.20;;;;;;;;;;4997827;28;19921;-72
2023/05/13 05:34:51;;;;;;;5.95;1.10;;;;;;;;;;4993305;28;20345;-72
2023/05/13 05:37:17;;;;;;;;;;;;;;;;;;4995533;28;20029;-72
2023/05/13 05:39:43;;;;;;;5.10;1.00;;;;;;;;;;4993695;28;19917;-70
2023/05/13 05:42:09;;;;;;;4.93;0.90;;;;;;;;;;4995651;28;20026;-73
2023/05/13 05:44:35;;;;;;;;;;;;;;;;;;4999058;28;20033;-72
2023/05/13 05:47:01;;;;;;;6.18;1.23;;;;;;;;;;4991985;28;19916;-73
2023/05/13 05:49:28;;;;;;;5.82;1.08;;;;;;;;;;4996193;28;20442;-71
2023/05/13 05:51:54;;;;;;;;;;;;;;;;;;4994116;28;20440;-72
2023/05/13 05:54:20;;;;;;;6.80;1.20;;;;;;;;;;5000677;28;19913;-72
2023/05/13 05:56:46;;;;;;;;;;;;;;;;;;4994391;28;20124;-71
2023/05/13 05:59:12;;;;;;;4.07;0.95;;;;;;;;;;4994279;28;19951;-72
2023/05/13 06:01:38;;;;;;;;;;;;;;;;;;4996256;28;20079;-72
2023/05/13 06:04:05;;;;;;;7.50;1.60;;;;;;;;;;4993635;28;20832;-72
2023/05/13 06:06:32;;;;;;;9.43;2.10;;;;;;;;;;4994542;28;20371;-72
2023/05/13 06:08:58;;;;;;;8.10;2.10;;;;;;;;;;4993953;28;20370;-71
2023/05/13 06:11:24;;;;;;;7.05;1.58;;;;;;;;;;4993969;28;20056;-71
2023/05/13 06:13:50;;;;;;;4.60;1.30;;;;;;;;;;4992492;28;20048;-71
2023/05/13 06:16:16;;;;;;;6.70;1.65;;;;;;;;;;4994352;28;20155;-71
2023/05/13 06:18:42;;;;;;;;;;;;;;;;;;4990874;28;20041;-71
2023/05/13 06:21:08;;;;;;;7.70;2.63;;;;;;;;;;4995870;28;19991;-72
2023/05/13 06:23:34;;;;;;;8.70;2.30;;;;;;;;;;4993282;28;20045;-71
2023/05/13 06:26:00;;;;;;;;;;;;;;;;;;4995907;28;20492;-73
2023/05/13 06:28:27;;;;;;;5.28;1.50;;;;;;;;;;4996764;28;20090;-71
2023/05/13 06:30:53;;;;;;;;;;;;;;;;;;5021847;28;20596;-71
2023/05/13 06:33:19;;;;;;;7.47;1.85;;;;;;;;;;4995378;28;19916;-71
2023/05/13 06:35:48;;;;;;;;;;;;;;;;;;4997426;28;20040;-71
2023/05/13 06:38:16;;;;;;;6.07;1.17;;;;;;;;;;5032171;28;19932;-71
2023/05/13 06:40:43;;;;;;;7.40;1.17;;;;;;;;;;4995338;28;20675;-70
2023/05/13 06:43:11;;;;;;;4.30;0.88;;;;;;;;;;4998734;28;20033;-70
2023/05/13 06:45:37;;;;;;;4.22;0.82;;;;;;;;;;4997650;28;20146;-71
2023/05/13 06:48:04;;;;;;;4.15;1.13;;;;;;;;;;4997096;28;20030;-71
2023/05/13 06:50:30;;;;;;;;;;;;;;;;;;5001497;28;20033;-71
2023/05/13 06:52:57;;;;;;;5.18;1.20;;;;;;;;;;4996789;28;19940;-71
2023/05/13 06:55:23;;;;;;;5.28;1.10;;;;;;;;;;5000443;28;20718;-71
2023/05/13 06:57:50;;;;;;;6.93;1.45;;;;;;;;;;4997400;28;20037;-71
2023/05/13 07:00:16;;;;;;;5.07;1.02;;;;;;;;;;5011159;28;20160;-71
2023/05/13 07:02:43;;;;;;;4.00;1.05;;;;;;;;;;4995363;28;20045;-71
2023/05/13 07:05:09;;;;;;;4.38;1.10;;;;;;;;;;4995584;28;20512;-71
2023/05/13 07:07:36;;;;;;;4.28;1.15;;;;;;;;;;4998633;28;20638;-71
2023/05/13 07:10:02;;;;;;;5.13;1.00;;;;;;;;;;4994304;28;20029;-71
2023/05/13 07:12:28;;;;;;;3.88;0.95;;;;;;;;;;4999358;28;20041;-71
2023/05/13 07:14:54;;;;;;;;;;;;;;;;;;4991891;28;20022;-71
2023/05/13 07:17:20;;;;;;;4.70;1.05;;;;;;;;;;4996417;28;19920;-71
2023/05/13 07:19:46;;;;;;;;;;;;;;;;;;4993931;28;20050;-71
2023/05/13 07:22:12;;;;;;;4.60;0.90;;;;;;;;;;5001878;28;19912;-71
2023/05/13 07:24:40;;;;;;;;;;;;;;;;;;4998412;28;20041;-72
2023/05/13 07:27:06;;;;;;;6.15;1.10;;;;;;;;;;5015465;28;19912;-71
2023/05/13 07:29:33;;;;;;;6.35;1.23;;;;;;;;;;4999660;28;20595;-72
2023/05/13 07:32:03;;;;;;;4.63;1.20;;;;;;;;;;4989980;28;20650;-71
2023/05/13 07:34:29;;;;;;;4.50;1.10;;;;;;;;;;4999168;28;20074;-71
2023/05/13 07:36:55;;;;;;;;;;;;;;;;;;4995256;28;20037;-72
2023/05/13 07:39:22;;;;;;;6.63;2.05;;;;;;;;;;4999602;28;19926;-71
2023/05/13 07:41:48;;;;;;;5.47;1.50;;;;;;;;;;4996318;28;20033;-71
2023/05/13 07:44:15;;;;;;;5.15;1.60;;;;;;;;;;4999759;28;20026;-72
2023/05/13 07:46:41;;;;;;;4.05;1.33;;;;;;;;;;4998019;28;20033;-72
2023/05/13 07:49:08;;;;;;;4.95;1.20;;;;;;;;;;4998969;28;20025;-72
2023/05/13 07:51:35;;;;;;;5.00;1.63;;;;;;;;;;4995137;28;20362;-72
2023/05/13 07:54:01;;;;;;;6.20;1.63;;;;;;;;;;5010203;28;20239;-72
2023/05/13 07:56:27;;;;;;;6.97;1.90;;;;;;;;;;4997082;28;20455;-72
2023/05/13 07:58:53;;;;;;;4.07;1.10;;;;;;;;;;4995684;28;20109;-71
2023/05/13 08:01:19;;;;;;;6.05;1.00;;;;;;;;;;5013212;28;20037;-72
2023/05/13 08:03:46;;;;;;;6.90;1.73;;;;;;;;;;4995185;28;20059;-71
2023/05/13 08:06:12;;;;;;;4.28;1.17;;;;;;;;;;4997713;28;20025;-71
2023/05/13 08:08:38;;;;;;;5.40;1.35;;;;;;;;;;4999482;28;20034;-72
2023/05/13 08:11:04;;;;;;;7.38;1.50;;;;;;;;;;5030076;28;20037;-71
2023/05/13 08:13:31;;;;;;;3.70;1.02;;;;;;;;;;4998355;28;20099;-72
2023/05/13 08:16:00;;;;;;;6.15;1.20;;;;;;;;;;4995638;28;20051;-72
2023/05/13 08:18:27;;;;;;;5.53;1.17;;;;;;;;;;4999478;28;20139;-72
2023/05/13 08:20:53;;;;;;;7.25;1.30;;;;;;;;;;4995925;28;20102;-72
2023/05/13 08:23:19;;;;;;;5.22;1.13;;;;;;;;;;4997297;28;20148;-71
2023/05/13 08:25:45;;;;;;;5.78;0.95;;;;;;;;;;4996878;28;20042;-73
2023/05/13 08:28:11;;;;;;;4.95;0.95;;;;;;;;;;4999169;28;20033;-70
2023/05/13 08:30:40;;;;;;;4.70;0.90;;;;;;;;;;4996913;28;20034;-73
2023/05/13 08:33:07;;;;;;;4.10;0.93;;;;;;;;;;4996443;28;20456;-71
2023/05/13 08:35:33;;;;;;;5.63;1.00;;;;;;;;;;5000093;28;20068;-70
2023/05/13 08:37:59;;;;;;;6.20;0.95;;;;;;;;;;4997011;28;22671;-71
2023/05/13 08:40:25;;;;;;;4.97;1.10;;;;;;;;;;4999493;28;20028;-73
2023/05/13 08:42:53;;;;;;;4.97;1.00;;;;;;;;;;4995086;28;20030;-73
2023/05/13 08:45:21;;;;;;;11.27;1.02;;;;;;;;;;5012996;28;20108;-73
2023/05/13 08:47:51;;;;;;;6.43;0.98;;;;;;;;;;4992843;28;20387;-72
2023/05/13 08:50:19;;;;;;;4.63;0.90;;;;;;;;;;4995748;28;20507;-72
2023/05/13 08:52:45;;;;;;;8.05;1.48;;;;;;;;;;4993512;28;20034;-72
2023/05/13 08:55:12;;;;;;;8.73;1.42;;;;;;;;;;4998284;28;20101;-73
2023/05/13 08:57:38;;;;;;;7.40;1.38;;;;;;;;;;4999869;28;20031;-72
2023/05/13 09:00:05;;;;;;;4.65;1.10;;;;;;;;;;4996512;28;20044;-72
2023/05/13 09:02:31;;;;;;;8.20;1.55;;;;;;;;;;4999412;28;20077;-71
2023/05/13 09:04:59;;;;;;;5.78;1.60;;;;;;;;;;4996918;28;20310;-72
2023/05/13 09:07:25;;;;;;;6.55;1.23;;;;;;;;;;4996269;28;20055;-72
2023/05/13 09:09:52;;;;;;;5.78;1.00;;;;;;;;;;4996360;28;20037;-73
2023/05/13 09:12:54;;;;;;;7.25;1.20;;;;;;;;;;4997402;28;20568;-72
2023/05/13 09:15:21;;;;;;;6.32;1.17;;;;;;;;;;4955354;28;20026;-72
2023/05/13 09:17:48;;;;;;;5.70;1.15;;;;;;;;;;4954536;28;21258;-72
2023/05/13 09:20:16;;;;;;;7.30;1.23;;;;;;;;;;4942527;28;20030;-72
2023/05/13 09:23:02;;;;;;;5.90;1.00;;;;;;;;;;4952385;28;20045;-72
2023/05/13 09:25:29;;;;;;;12.40;1.13;;;;;;;;;;4953858;28;20130;-72
2023/05/13 09:27:57;;;;;;;4.28;1.10;;;;;;;;;;4953403;28;20069;-72
2023/05/13 09:30:30;;;;;;;8.82;1.40;;;;;;;;;;4940722;28;20145;-72
2023/05/13 09:33:12;;;;;;;5.28;0.88;;;;;;;;;;4936116;28;20030;-70
2023/05/13 09:35:42;;;;;;;7.95;1.20;;;;;;;;;;4957756;28;20473;-71
2023/05/13 09:38:29;;;;;;;6.50;1.10;;;;;;;;;;4956614;28;20481;-71
2023/05/13 09:40:59;;;;;;;7.80;1.30;;;;;;;;;;4938110;28;20482;-71
2023/05/13 09:43:26;;;;;;;5.22;1.02;;;;;;;;;;4939287;28;20081;-71
2023/05/13 09:45:56;;;;;;;5.85;1.20;;;;;;;;;;4938971;28;20636;-70
2023/05/13 09:48:26;;;;;;;7.32;1.17;;;;;;;;;;4961982;28;21625;-70
2023/05/13 09:50:54;;;;;;;4.63;1.00;;;;;;;;;;4993658;28;20036;-71
2023/05/13 09:53:20;;;;;;;6.18;1.05;;;;;;;;;;4999820;28;20028;-71
2023/05/13 09:55:47;;;;;;;5.07;0.90;;;;;;;;;;4996248;28;20356;-71
2023/05/13 09:58:13;;;;;;;4.75;0.88;;;;;;;;;;5011873;28;20535;-71
2023/05/13 10:00:40;;;;;;;6.35;0.98;;;;;;;;;;4997409;28;20168;-71
2023/05/13 10:03:07;;;;;;;5.82;1.08;;;;;;;;;;4998012;28;20029;-71
2023/05/13 10:05:33;;;;;;;6.15;1.13;;;;;;;;;;4993856;28;20021;-71
2023/05/13 10:08:03;;;;;;;7.68;1.10;;;;;;;;;;4993628;28;22314;-71
2023/05/13 10:10:30;;;;;;;5.40;1.00;;;;;;;;;;5000171;28;20047;-71
2023/05/13 10:12:59;;;;;;;5.15;1.00;;;;;;;;;;4998331;28;20373;-71
2023/05/13 10:15:25;;;;;;;5.35;1.27;;;;;;;;;;5002623;28;20438;-70
2023/05/13 10:17:52;;;;;;;7.95;1.80;;;;;;;;;;5001449;28;20029;-70
2023/05/13 10:20:18;;;;;;;9.35;1.50;;;;;;;;;;4999838;28;20032;-71
2023/05/13 10:22:44;;;;;;;5.93;1.42;;;;;;;;;;4998811;28;20038;-72
2023/05/13 10:25:11;;;;;;;7.57;1.25;;;;;;;;;;5002114;28;20536;-72
2023/05/13 10:27:37;;;;;;;13.70;2.08;;;;;;;;;;5000919;28;20117;-73
2023/05/13 10:30:08;;;;;;;10.95;2.15;;;;;;;;;;5000574;28;20469;-74
2023/05/13 10:32:36;;;;;;;8.23;1.75;;;;;;;;;;4999566;28;20071;-74
2023/05/13 10:35:05;;;;;;;10.88;1.80;;;;;;;;;;4994096;28;20032;-73
2023/05/13 10:37:50;;;;;;;8.98;1.60;;;;;;;;;;5001512;28;20029;-73
2023/05/13 10:40:26;;;;;;;5.10;1.17;;;;;;;;;;5000688;28;20039;-73
2023/05/13 10:42:59;;;;;;;5.00;1.30;;;;;;;;;;4996101;28;20433;-73
2023/05/13 10:45:26;;;;;;;11.70;1.60;;;;;;;;;;5007587;28;20030;-76
2023/05/13 10:47:55;;;;;;;5.78;1.23;;;;;;;;;;4997974;28;20554;-75
2023/05/13 10:50:25;;;;;;;4.97;1.40;;;;;;;;;;5001372;28;20546;-75
2023/05/13 10:52:54;;;;;;;6.35;1.40;;;;;;;;;;4994984;28;20037;-75
2023/05/13 10:55:21;;;;;;;4.82;1.20;;;;;;;;;;5004810;28;20026;-75
2023/05/13 10:58:10;;;;;;;6.97;1.30;;;;;;;;;;5001447;28;20041;-75
2023/05/13 11:00:37;;;;;;;6.53;0.80;;;;;;;;;;5027625;28;20453;-75
2023/05/13 11:03:10;;;;;;;4.50;1.05;;;;;;;;;;4997937;28;20029;-76
2023/05/13 11:05:46;;;;;;;4.85;1.15;;;;;;;;;;4999191;28;20281;-75
2023/05/13 11:08:32;;;;;;;7.35;1.45;;;;;;;;;;5003810;28;20025;-76
2023/05/13 11:10:59;;;;;;;8.85;1.92;;;;;;;;;;5000804;28;20411;-74
2023/05/13 11:13:34;;;;;;;7.93;1.70;;;;;;;;;;5000685;28;20026;-74
2023/05/13 11:16:01;;;;;;;4.90;1.17;;;;;;;;;;5005563;28;20164;-74
2023/05/13 11:18:30;;;;;;;5.18;1.50;;;;;;;;;;5008450;28;20203;-77
2023/05/13 11:21:02;;;;;;;6.35;1.33;;;;;;;;;;4996548;28;20033;-74
2023/05/13 11:23:28;;;;;;;9.18;1.80;;;;;;;;;;5001962;28;20052;-75
2023/05/13 11:26:17;;;;;;;11.38;2.15;;;;;;;;;;5000280;28;20571;-75
2023/05/13 11:28:54;;;;;;;5.50;1.55;;;;;;;;;;4999246;28;20037;-74
2023/05/13 11:31:21;;;;;;;5.75;1.80;;;;;;;;;;5003542;28;20444;-75
2023/05/13 11:34:09;;;;;;;5.07;1.50;;;;;;;;;;4998948;28;22031;-75
2023/05/13 11:36:40;;;;;;;7.53;1.85;;;;;;;;;;4999877;28;20036;-74
2023/05/13 11:39:07;;;;;;;4.72;1.38;;;;;;;;;;5001580;28;20021;-74
2023/05/13 11:41:33;;;;;;;8.57;2.28;;;;;;;;;;5013783;28;20025;-75
2023/05/13 11:44:02;;;;;;;7.47;2.05;;;;;;;;;;4995061;28;21297;-75
2023/05/13 11:46:28;;;;;;;6.82;1.95;;;;;;;;;;4999575;28;20032;-75
2023/05/13 11:48:55;;;;;;;7.45;1.77;;;;;;;;;;4994809;28;20061;-76
2023/05/13 11:51:21;;;;;;;7.50;2.30;;;;;;;;;;5001250;28;20065;-75
2023/05/13 11:53:47;;;;;;;6.07;2.03;;;;;;;;;;4998256;28;20319;-75
2023/05/13 11:56:14;;;;;;;7.75;1.83;;;;;;;;;;5001847;28;20066;-75
2023/05/13 11:58:40;;;;;;;5.78;1.63;;;;;;;;;;5003024;28;20204;-74
2023/05/13 12:01:12;;;;;;;7.38;2.20;;;;;;;;;;5006593;28;20543;-75
2023/05/13 12:03:38;;;;;;;6.55;1.92;;;;;;;;;;5002843;28;20087;-75
2023/05/13 12:06:04;;;;;;;6.90;2.00;;;;;;;;;;4996284;28;20281;-75
2023/05/13 12:08:31;;;;;;;7.35;2.17;;;;;;;;;;4999897;28;20057;-74
2023/05/13 12:10:59;;;;;;;6.47;2.03;;;;;;;;;;5009003;28;20029;-75
2023/05/13 12:13:25;;;;;;;8.25;2.85;;;;;;;;;;4998397;28;20113;-75
2023/05/13 12:15:52;;;;;;;7.53;2.47;;;;;;;;;;4998001;28;20072;-75
2023/05/13 12:18:18;;;;;;;7.97;2.20;;;;;;;;;;4996795;28;20030;-75
2023/05/13 12:20:45;;;;;;;7.60;2.33;;;;;;;;;;4997405;28;20488;-75
2023/05/13 12:23:11;;;;;;;8.00;3.47;;;;;;;;;;5000165;28;20044;-75
2023/05/13 12:25:39;;;;;;;7.50;2.47;;;;;;;;;;5001394;28;20076;-75
2023/05/13 12:28:08;;;;;;;8.55;2.30;;;;;;;;;;5002092;28;20025;-75
2023/05/13 12:30:36;;;;;;;6.32;2.13;;;;;;;;;;4996648;28;20678;-75
2023/05/13 12:33:03;;;;;;;5.50;1.30;;;;;;;;;;4996977;28;20574;-74
2023/05/13 12:35:30;;;;;;;5.53;1.30;;;;;;;;;;4996800;28;20488;-74
2023/05/13 12:38:03;;;;;;;4.28;1.30;;;;;;;;;;5000780;28;20064;-75
2023/05/13 12:40:30;;;;;;;5.40;1.55;;;;;;;;;;4996995;28;20429;-75
2023/05/13 12:42:59;;;;;;;5.30;1.13;;;;;;;;;;5014717;28;20090;-76
2023/05/13 12:45:29;;;;;;;7.05;1.40;;;;;;;;;;5000180;28;20021;-77
2023/05/13 12:47:55;;;;;;;7.78;1.65;;;;;;;;;;4996877;28;20298;-75
2023/05/13 12:50:22;;;;;;;6.80;1.25;;;;;;;;;;5001815;28;20067;-75
2023/05/13 12:52:48;;;;;;;5.50;1.40;;;;;;;;;;4998636;28;20147;-75
2023/05/13 12:55:14;;;;;;;6.05;1.40;;;;;;;;;;4998963;28;20025;-74
2023/05/13 12:57:41;;;;;;;6.43;1.40;;;;;;;;;;4998709;28;20144;-74
2023/05/13 13:00:09;;;;;;;4.97;1.10;;;;;;;;;;5001818;28;20107;-75
2023/05/13 13:02:36;;;;;;;4.68;1.20;;;;;;;;;;5001490;28;20096;-75
2023/05/13 13:05:02;;;;;;;6.15;1.60;;;;;;;;;;4997929;28;20102;-75
2023/05/13 13:07:28;;;;;;;6.13;1.58;;;;;;;;;;5031983;28;20123;-75
2023/05/13 13:09:55;;;;;;;5.00;1.50;;;;;;;;;;4994572;28;20275;-76
2023/05/13 13:12:21;;;;;;;4.60;1.20;;;;;;;;;;4999246;28;20033;-75
2023/05/13 13:14:48;;;;;;;7.25;2.20;;;;;;;;;;4996946;28;20140;-75
2023/05/13 13:17:14;;;;;;;5.07;1.35;;;;;;;;;;4994299;28;20025;-75
2023/05/13 13:19:40;;;;;;;4.22;1.02;;;;;;;;;;4998449;28;20430;-74
2023/05/13 13:22:06;;;;;;;5.85;1.48;;;;;;;;;;4998124;28;20040;-75
2023/05/13 13:24:32;;;;;;;4.10;0.98;;;;;;;;;;5002536;28;20574;-75
2023/05/13 13:26:59;;;;;;;5.82;1.10;;;;;;;;;;4995618;28;20025;-75
2023/05/13 13:29:25;;;;;;;4.28;0.93;;;;;;;;;;5016916;28;20037;-76
2023/05/13 13:31:51;;;;;;;4.10;1.10;;;;;;;;;;4999627;28;20029;-76
2023/05/13 13:34:17;;;;;;;5.18;1.38;;;;;;;;;;5000528;28;20104;-76
2023/05/13 13:36:44;;;;;;;6.63;1.30;;;;;;;;;;5000416;28;20523;-76
2023/05/13 13:39:10;;;;;;;7.22;1.30;;;;;;;;;;5013505;28;20030;-76
2023/05/13 13:41:36;;;;;;;6.15;1.52;;;;;;;;;;5001404;28;20881;-76
2023/05/13 13:44:03;;;;;;;7.93;1.08;;;;;;;;;;4999225;28;20037;-76
2023/05/13 13:46:29;;;;;;;4.28;1.13;;;;;;;;;;5000512;28;20116;-76
2023/05/13 13:48:55;;;;;;;4.20;0.88;;;;;;;;;;5001558;28;20124;-76
2023/05/13 13:51:21;;;;;;;6.28;1.30;;;;;;;;;;5004973;28;20053;-76
2023/05/13 13:53:49;;;;;;;5.70;1.73;;;;;;;;;;5001909;28;20034;-77
2023/05/13 13:56:15;;;;;;;6.38;1.92;;;;;;;;;;4997415;28;21117;-76
2023/05/13 13:58:42;;;;;;;5.65;1.27;;;;;;;;;;5011345;28;20041;-77
2023/05/13 14:01:08;;;;;;;5.30;1.30;;;;;;;;;;4997599;28;21095;-76
2023/05/13 14:03:36;;;;;;;5.82;1.42;;;;;;;;;;4995972;28;20754;-76
2023/05/13 14:06:02;;;;;;;3.78;1.15;;;;;;;;;;4996966;28;20041;-76
2023/05/13 14:08:28;;;;;;;6.03;1.30;;;;;;;;;;4998741;28;20602;-76
2023/05/13 14:10:54;;;;;;;4.80;1.40;;;;;;;;;;4995644;28;20331;-76
2023/05/13 14:13:20;;;;;;;4.22;1.20;;;;;;;;;;5001314;28;20026;-76
2023/05/13 14:15:46;;;;;;;3.00;1.00;;;;;;;;;;4998977;28;20430;-75
2023/05/13 14:18:12;;;;;;;5.40;1.10;;;;;;;;;;4998836;28;20026;-76
2023/05/13 14:20:39;;;;;;;5.20;1.23;;;;;;;;;;5000219;28;20031;-77
2023/05/13 14:23:05;;;;;;;2.97;0.80;;;;;;;;;;4998605;28;20316;-75
2023/05/13 14:25:31;;;;;;;3.72;1.02;;;;;;;;;;5001111;28;20029;-76
2023/05/13 14:27:57;;;;;;;4.20;1.15;;;;;;;;;;4995692;28;20030;-77
2023/05/13 14:30:26;;;;;;;5.07;1.35;;;;;;;;;;5001392;28;20030;-76
2023/05/13 14:32:52;;;;;;;3.53;0.90;;;;;;;;;;5003731;28;20040;-76
2023/05/13 14:35:18;;;;;;;4.22;1.40;;;;;;;;;;5000066;28;20397;-76
2023/05/13 14:37:44;;;;;;;5.90;1.17;;;;;;;;;;4995483;28;20830;-76
2023/05/13 14:40:10;;;;;;;4.13;1.10;;;;;;;;;;4999759;28;20037;-76
2023/05/13 14:42:37;;;;;;;4.78;1.70;;;;;;;;;;4999873;28;20033;-76
2023/05/13 14:45:03;;;;;;;5.90;1.40;;;;;;;;;;4998512;28;20044;-76
2023/05/13 14:47:29;;;;;;;7.03;1.80;;;;;;;;;;4999276;28;20034;-77
2023/05/13 14:49:55;;;;;;;6.03;1.50;;;;;;;;;;4995773;28;20065;-75
2023/05/13 14:52:21;;;;;;;6.30;1.27;;;;;;;;;;4998732;28;20057;-75
2023/05/13 14:54:48;;;;;;;4.47;1.20;;;;;;;;;;4997613;28;20033;-76
2023/05/13 14:57:14;;;;;;;5.45;1.58;;;;;;;;;;5002616;28;20029;-77
2023/05/13 14:59:40;;;;;;;3.92;1.15;;;;;;;;;;4997105;28;20032;-76